Time;durP1;ratioP1;P1;durP2;ratioP2;P2;SDS_P1;SDS_P2;PMS_P1;PMS_P2;Temp;Humidity;BMP_temperature;BMP_pressure;BME280_temperature;BME280_humidity;BME280_pressure;Samples;Min_cycle;Max_cycle;Signal;HPM_P1;HPM_P2
2024/01/14 12:22:44;;;;;;;58.80;17.55;;;1.60;99.90;;;;;;7420199;19;20318;-80
2024/01/14 12:25:33;;;;;;;56.10;17.45;;;1.80;99.90;;;;;;7423423;19;20002;-81
2024/01/14 12:28:06;;;;;;;51.85;19.75;;;2.40;99.90;;;;;;7423523;19;20010;-77
2024/01/14 12:30:36;;;;;;;58.95;21.83;;;2.90;99.90;;;;;;7422099;19;20010;-80
2024/01/14 12:33:11;;;;;;;57.07;18.97;;;3.50;99.90;;;;;;7442173;19;20033;-80
2024/01/14 12:35:41;;;;;;;46.33;18.58;;;3.90;99.90;;;;;;7420152;19;20275;-76
2024/01/14 12:38:12;;;;;;;48.33;19.80;;;4.20;99.90;;;;;;7416243;19;20006;-76
2024/01/14 12:40:41;;;;;;;;;;;4.40;99.90;;;;;;7417236;19;20024;-76
2024/01/14 12:43:11;;;;;;;42.35;15.15;;;4.50;99.90;;;;;;7416775;19;19932;-78
2024/01/14 12:45:48;;;;;;;42.42;16.75;;;4.60;99.90;;;;;;7420292;19;20010;-80
2024/01/14 12:48:22;;;;;;;45.92;16.63;;;4.60;99.90;;;;;;7438040;19;20015;-78
2024/01/14 12:50:57;;;;;;;45.33;16.48;;;4.60;99.90;;;;;;7415749;19;20066;-75
2024/01/14 12:53:29;;;;;;;51.25;18.38;;;4.70;99.90;;;;;;7416521;19;20026;-76
2024/01/14 12:56:16;;;;;;;58.30;18.90;;;4.80;99.90;;;;;;7415380;19;20019;-77
2024/01/14 12:58:45;;;;;;;51.63;19.08;;;4.90;99.90;;;;;;7417361;19;20006;-80
2024/01/14 13:01:14;;;;;;;44.22;18.27;;;5.00;99.90;;;;;;7420053;19;20074;-77
2024/01/14 13:03:43;;;;;;;44.50;16.83;;;5.00;99.90;;;;;;7420013;19;20029;-76
2024/01/14 13:06:11;;;;;;;54.88;19.95;;;4.80;99.90;;;;;;7436303;19;20020;-76
2024/01/14 13:08:43;;;;;;;94.97;34.05;;;4.80;99.90;;;;;;7413789;19;20020;-76
2024/01/14 13:11:15;;;;;;;74.03;26.50;;;4.70;99.90;;;;;;7411997;19;20385;-77
2024/01/14 13:14:05;;;;;;;51.13;19.02;;;4.70;99.90;;;;;;7417610;19;20006;-83
2024/01/14 13:22:44;;;;;;;48.40;15.75;;;4.90;99.90;;;;;;7419000;19;20058;-79
2024/01/14 13:25:35;;;;;;;;;;;;;;;;;;;;;
2024/01/14 13:28:23;;;;;;;;;;;;;;;;;;;;;
2024/01/14 13:34:15;;;;;;;;;;;;;;;;;;;;;
2024/01/14 13:43:09;;;;;;;44.58;17.15;;;5.00;99.90;;;;;;7418320;19;20372;-80
2024/01/14 13:46:11;;;;;;;;;;;;;;;;;;;;;
2024/01/14 13:49:28;;;;;;;;;;;;;;;;;;;;;
2024/01/14 14:09:38;;;;;;;40.67;13.30;;;5.00;99.90;;;;;;7423130;19;20313;-81
2024/01/14 14:12:38;;;;;;;;;;;;;;;;;;;;;
2024/01/14 14:21:44;;;;;;;57.80;19.40;;;4.90;99.90;;;;;;7437357;19;20332;-78
2024/01/14 14:24:41;;;;;;;39.25;15.93;;;4.80;99.90;;;;;;7417854;19;20096;-78
2024/01/14 14:28:00;;;;;;;;;;;;;;;;;;;;;
2024/01/14 14:34:00;;;;;;;42.45;15.25;;;4.90;99.90;;;;;;7419232;19;20029;-80
2024/01/14 14:37:02;;;;;;;;;;;;;;;;;;;;;
2024/01/14 14:43:24;;;;;;;;;;;;;;;;;;;;;
2024/01/14 14:55:48;;;;;;;40.38;16.25;;;4.60;99.90;;;;;;7428803;19;20371;-81
2024/01/14 14:58:19;;;;;;;40.92;14.93;;;4.60;99.90;;;;;;7395203;19;20018;-82
2024/01/14 15:00:48;;;;;;;37.20;14.38;;;4.60;99.90;;;;;;7423590;19;20066;-81
2024/01/14 15:03:17;;;;;;;37.65;13.80;;;4.60;99.90;;;;;;7446030;19;20006;-80
2024/01/14 15:05:48;;;;;;;44.72;14.93;;;4.60;99.90;;;;;;7427291;19;20006;-80
2024/01/14 15:08:22;;;;;;;;;;;4.60;99.90;;;;;;7429394;19;20032;-82
2024/01/14 15:14:20;;;;;;;31.33;12.77;;;4.60;99.90;;;;;;7424352;19;20017;-80
2024/01/14 15:17:02;;;;;;;;;;;;;;;;;;;;;
2024/01/14 15:19:31;;;;;;;;;;;4.50;99.90;;;;;;7426144;19;19998;-82
2024/01/14 15:22:08;;;;;;;33.53;14.10;;;4.60;99.90;;;;;;7427648;19;19927;-81
2024/01/14 15:27:45;;;;;;;33.03;14.82;;;4.50;99.90;;;;;;7435371;19;20014;-79
2024/01/14 15:31:12;;;;;;;;;;;;;;;;;;;;;
2024/01/14 15:33:49;;;;;;;36.40;15.70;;;4.60;99.90;;;;;;7299337;19;2020625;-81
2024/01/14 15:36:21;;;;;;;49.22;15.90;;;4.70;99.90;;;;;;7452456;19;20018;-80
2024/01/14 15:39:00;;;;;;;31.88;13.95;;;4.70;99.90;;;;;;7438012;19;20014;-81
2024/01/14 15:41:33;;;;;;;43.38;15.38;;;4.80;99.90;;;;;;7438163;19;20006;-81
2024/01/14 15:44:09;;;;;;;40.47;14.63;;;4.80;99.90;;;;;;7436492;19;20010;-79
2024/01/14 15:46:48;;;;;;;36.75;14.23;;;4.70;99.90;;;;;;7431213;19;20329;-81
2024/01/14 15:49:28;;;;;;;32.00;13.30;;;4.50;99.90;;;;;;7427207;19;20022;-81
2024/01/14 15:54:43;;;;;;;32.35;13.70;;;4.60;99.90;;;;;;7420588;19;20006;-80
2024/01/14 15:57:25;;;;;;;30.80;12.27;;;4.50;99.90;;;;;;7444730;19;20003;-81
2024/01/14 16:00:00;;;;;;;33.00;13.75;;;4.40;99.90;;;;;;7423526;19;20013;-81
2024/01/14 16:02:30;;;;;;;30.55;12.85;;;4.30;99.90;;;;;;7425446;19;20002;-80
2024/01/14 16:05:08;;;;;;;29.05;12.60;;;4.40;99.90;;;;;;7422618;19;20013;-80
2024/01/14 16:07:41;;;;;;;30.63;13.43;;;4.30;99.90;;;;;;7397656;19;20031;-81
2024/01/14 16:10:17;;;;;;;32.08;13.88;;;4.40;99.90;;;;;;7396718;19;20380;-80
2024/01/14 16:13:03;;;;;;;;;;;;;;;;;;;;;
2024/01/14 16:15:38;;;;;;;36.70;13.48;;;4.50;99.90;;;;;;7392551;19;20358;-80
2024/01/14 16:18:11;;;;;;;39.28;14.43;;;4.60;99.90;;;;;;7414735;19;20007;-79
2024/01/14 16:20:57;;;;;;;;;;;;;;;;;;;;;
2024/01/14 16:23:47;;;;;;;38.75;15.27;;;4.60;99.90;;;;;;7394182;19;20018;-81
2024/01/14 16:26:19;;;;;;;31.35;12.70;;;4.50;99.90;;;;;;7392954;19;20415;-80
2024/01/14 16:29:19;;;;;;;32.00;13.18;;;4.50;99.90;;;;;;7392707;19;20030;-79
2024/01/14 16:32:32;;;;;;;34.60;13.88;;;4.40;99.90;;;;;;7395129;19;20261;-81
2024/01/14 16:35:13;;;;;;;37.03;12.68;;;4.40;99.90;;;;;;7392062;19;20002;-80
2024/01/14 16:37:45;;;;;;;35.65;13.07;;;4.30;99.90;;;;;;7393884;19;20071;-82
2024/01/14 16:43:21;;;;;;;33.35;13.20;;;4.20;99.90;;;;;;7393479;19;20011;-81
2024/01/14 16:45:54;;;;;;;40.03;11.80;;;4.20;99.90;;;;;;7395216;19;20017;-81
2024/01/14 16:48:29;;;;;;;36.78;13.10;;;4.20;99.90;;;;;;7416441;19;20013;-79
2024/01/14 16:51:01;;;;;;;39.53;13.60;;;4.20;99.90;;;;;;7391247;19;20047;-81
2024/01/14 16:53:53;;;;;;;41.55;13.02;;;4.10;99.90;;;;;;7390709;19;20260;-80
2024/01/14 17:08:42;;;;;;;30.92;12.63;;;4.10;99.90;;;;;;7427504;19;20582;-75
2024/01/14 17:11:25;;;;;;;32.22;13.40;;;4.20;99.90;;;;;;7441957;19;20022;-78
2024/01/14 17:14:21;;;;;;;31.40;11.93;;;4.20;99.90;;;;;;7423201;19;20003;-80
2024/01/14 17:17:01;;;;;;;33.33;11.65;;;4.30;99.90;;;;;;7439431;19;20015;-78
2024/01/14 17:29:35;;;;;;;27.60;9.30;;;4.00;99.90;;;;;;7428229;19;20082;-82
2024/01/14 17:32:11;;;;;;;34.05;12.23;;;4.10;99.90;;;;;;7438305;19;20010;-78
2024/01/14 17:34:41;;;;;;;27.50;11.55;;;4.10;99.90;;;;;;7414395;19;20087;-76
2024/01/14 17:37:10;;;;;;;26.60;11.95;;;4.20;99.90;;;;;;7411254;19;20035;-76
2024/01/14 17:39:39;;;;;;;29.35;12.82;;;4.20;99.90;;;;;;7412709;19;20310;-76
2024/01/14 17:42:08;;;;;;;27.40;13.15;;;4.30;99.90;;;;;;7452447;19;20060;-75
2024/01/14 17:44:37;;;;;;;35.38;13.05;;;4.30;99.90;;;;;;7425835;19;20019;-76
2024/01/14 17:47:08;;;;;;;37.67;13.70;;;4.30;99.90;;;;;;7431783;19;20044;-77
2024/01/14 17:49:37;;;;;;;35.88;14.73;;;4.30;99.90;;;;;;7429752;19;20024;-75
2024/01/14 17:52:08;;;;;;;37.10;15.05;;;4.20;99.90;;;;;;7429433;19;20022;-80
2024/01/14 17:54:36;;;;;;;40.22;14.50;;;4.10;99.90;;;;;;7417942;19;20029;-78
2024/01/14 17:57:05;;;;;;;47.67;17.65;;;4.00;99.90;;;;;;7441783;19;20028;-77
2024/01/14 17:59:36;;;;;;;37.17;14.98;;;4.00;99.90;;;;;;7419281;19;20060;-76
2024/01/14 18:02:08;;;;;;;41.28;16.30;;;4.00;99.90;;;;;;7416523;19;20288;-77
2024/01/14 18:04:40;;;;;;;35.55;15.35;;;4.00;99.90;;;;;;7413535;19;20006;-82
2024/01/14 18:07:10;;;;;;;36.17;16.23;;;4.00;99.90;;;;;;7417209;19;20349;-78
2024/01/14 18:09:39;;;;;;;42.00;16.48;;;4.10;99.90;;;;;;7417845;19;20023;-78
2024/01/14 18:12:08;;;;;;;39.97;15.27;;;4.10;99.90;;;;;;7438481;19;20378;-77
2024/01/14 18:14:54;;;;;;;;;;;;;;;;;;;;;
2024/01/14 18:17:30;;;;;;;38.78;15.45;;;4.10;99.90;;;;;;7384663;19;20049;-78
2024/01/14 18:19:58;;;;;;;34.53;15.60;;;4.20;99.90;;;;;;7384485;19;20320;-74
2024/01/14 18:26:35;;;;;;;;;;;;;;;;;;;;;
2024/01/14 18:36:02;;;;;;;44.10;17.63;;;4.30;99.90;;;;;;7441883;19;20337;-81
2024/01/14 18:48:22;;;;;;;40.20;17.35;;;4.40;99.90;;;;;;7418307;19;20070;-82
2024/01/14 18:57:19;;;;;;;;;;;;;;;;;;;;;
2024/01/14 18:59:57;;;;;;;529.28;38.72;;;4.20;99.90;;;;;;7441488;19;20014;-82
2024/01/14 19:02:47;;;;;;;;;;;;;;;;;;;;;
2024/01/14 19:05:33;;;;;;;;;;;;;;;;;;;;;
2024/01/14 19:08:45;;;;;;;;;;;;;;;;;;;;;
2024/01/14 19:12:13;;;;;;;;;;;;;;;;;;;;;
2024/01/14 19:14:50;;;;;;;36.72;14.70;;;4.40;99.90;;;;;;7417703;19;20011;-79
2024/01/14 19:17:30;;;;;;;37.42;15.32;;;4.40;99.90;;;;;;7442286;19;20027;-82
2024/01/14 19:20:17;;;;;;;;;;;;;;;;;;;;;
2024/01/14 19:23:33;;;;;;;;;;;;;;;;;;;;;
2024/01/14 19:26:12;;;;;;;34.10;13.23;;;4.30;99.90;;;;;;7437346;19;20009;-81
2024/01/14 19:29:25;;;;;;;;;;;;;;;;;;;;;
2024/01/14 19:32:04;;;;;;;;;;;;;;;;;;;;;
2024/01/14 19:41:55;;;;;;;;;;;;;;;;;;;;;
2024/01/14 19:51:34;;;;;;;32.63;12.60;;;4.40;99.90;;;;;;7422919;19;20031;-82
2024/01/14 19:54:48;;;;;;;;;;;;;;;;;;;;;
2024/01/14 20:11:15;;;;;;;28.65;11.63;;;4.40;99.90;;;;;;7421370;19;20328;-80
2024/01/14 20:14:02;;;;;;;;;;;;;;;;;;;;;
2024/01/14 20:17:05;;;;;;;;;;;;;;;;;;;;;
2024/01/14 20:20:13;;;;;;;;;;;;;;;;;;;;;
2024/01/14 20:23:05;;;;;;;;;;;;;;;;;;;;;
2024/01/14 20:25:37;;;;;;;33.72;13.80;;;4.70;99.90;;;;;;7420400;19;20097;-81
2024/01/14 20:28:37;;;;;;;33.53;13.45;;;4.70;99.90;;;;;;7420807;19;20029;-79
2024/01/14 20:31:28;;;;;;;34.80;12.80;;;4.60;99.90;;;;;;7434535;19;20010;-78
2024/01/14 20:34:22;;;;;;;;;;;;;;;;;;;;;
2024/01/14 20:36:52;;;;;;;32.55;13.55;;;4.70;99.90;;;;;;7418694;19;20260;-78
2024/01/14 20:39:30;;;;;;;;;;;;;;;;;;;;;
2024/01/14 20:42:07;;;;;;;36.13;14.65;;;4.70;99.90;;;;;;7419557;19;20054;-78
2024/01/14 20:44:54;;;;;;;33.85;12.80;;;4.70;99.90;;;;;;7421921;19;20006;-77
2024/01/14 20:47:35;;;;;;;;;;;;;;;;;;;;;
2024/01/14 20:50:05;;;;;;;45.05;14.35;;;4.90;99.90;;;;;;7417006;19;20413;-78
2024/01/14 20:52:48;;;;;;;38.15;15.02;;;4.80;99.90;;;;;;7420935;19;20076;-78
2024/01/14 20:55:50;;;;;;;;;;;;;;;;;;;;;
2024/01/14 20:58:25;;;;;;;29.75;14.20;;;4.90;99.90;;;;;;7417550;19;20018;-77
2024/01/14 21:01:07;;;;;;;37.05;13.82;;;4.90;99.90;;;;;;7422193;19;20010;-79
2024/01/14 21:03:43;;;;;;;40.83;14.75;;;4.80;99.90;;;;;;7442045;19;20011;-78
2024/01/14 21:06:12;;;;;;;36.40;14.82;;;4.80;99.90;;;;;;7419366;19;20366;-78
2024/01/14 21:08:51;;;;;;;;;;;;;;;;;;;;;
2024/01/14 21:11:24;;;;;;;42.45;14.57;;;4.80;99.90;;;;;;7397582;19;20011;-77
2024/01/14 21:14:14;;;;;;;32.78;15.07;;;4.80;99.90;;;;;;7392222;19;20098;-79
2024/01/14 21:16:51;;;;;;;40.70;14.23;;;4.80;99.90;;;;;;7391802;19;20231;-80
2024/01/14 21:19:27;;;;;;;48.00;14.85;;;4.80;99.90;;;;;;7391014;19;20014;-77
2024/01/14 21:22:06;;;;;;;;;;;;;;;;;;;;;
2024/01/14 21:24:48;;;;;;;;;;;;;;;;;;;;;
2024/01/14 21:27:16;;;;;;;;;;;4.80;99.90;;;;;;7392724;19;20901;-78
2024/01/14 21:29:45;;;;;;;39.95;14.35;;;4.80;99.90;;;;;;7386840;19;19920;-78
2024/01/14 21:32:19;;;;;;;35.17;15.27;;;4.80;99.90;;;;;;7387168;19;20027;-77
2024/01/14 21:34:49;;;;;;;42.58;16.23;;;4.70;99.90;;;;;;7389001;19;20006;-78
2024/01/14 21:37:29;;;;;;;;;;;;;;;;;;;;;
2024/01/14 21:40:02;;;;;;;47.80;15.13;;;4.80;99.90;;;;;;7390267;19;20011;-77
2024/01/14 21:42:34;;;;;;;38.83;15.23;;;4.90;99.90;;;;;;7410295;19;20014;-77
2024/01/14 21:45:07;;;;;;;43.78;16.80;;;4.90;99.90;;;;;;7389074;19;20034;-78
2024/01/14 21:47:39;;;;;;;45.72;16.15;;;4.90;99.90;;;;;;7390003;19;20013;-78
2024/01/14 21:50:10;;;;;;;39.53;15.25;;;4.90;99.90;;;;;;7387822;19;20003;-77
2024/01/14 21:52:41;;;;;;;38.70;14.93;;;5.00;99.90;;;;;;7388437;19;20006;-78
2024/01/14 21:55:15;;;;;;;37.13;15.20;;;5.00;99.90;;;;;;7387521;19;20023;-77
2024/01/14 21:57:46;;;;;;;34.63;15.18;;;5.00;99.90;;;;;;7409395;19;20007;-78
2024/01/14 22:00:17;;;;;;;41.20;15.45;;;5.00;99.90;;;;;;7385139;19;20018;-77
2024/01/14 22:02:49;;;;;;;38.58;13.80;;;5.00;99.90;;;;;;7386155;19;19999;-77
2024/01/14 22:05:35;;;;;;;;;;;;;;;;;;;;;
2024/01/14 22:08:04;;;;;;;39.95;15.23;;;5.00;99.90;;;;;;7392824;19;20014;-77
2024/01/14 22:10:36;;;;;;;44.85;14.45;;;5.00;99.90;;;;;;7399224;19;20007;-77
2024/01/14 22:13:05;;;;;;;34.08;14.35;;;5.00;99.90;;;;;;7400794;19;20003;-77
2024/01/14 22:15:35;;;;;;;38.67;15.63;;;5.10;99.90;;;;;;7424458;19;20034;-77
2024/01/14 22:18:07;;;;;;;46.47;15.85;;;5.10;99.90;;;;;;7400080;19;20023;-77
2024/01/14 22:21:08;;;;;;;37.00;15.05;;;5.10;99.90;;;;;;7386535;19;20011;-77
2024/01/14 22:23:42;;;;;;;36.45;14.80;;;5.10;99.90;;;;;;7385427;19;20072;-78
2024/01/14 22:26:15;;;;;;;44.28;15.43;;;5.10;99.90;;;;;;7385088;19;20359;-77
2024/01/14 22:28:47;;;;;;;49.17;15.18;;;5.10;99.90;;;;;;7384934;19;20085;-77
2024/01/14 22:31:16;;;;;;;31.20;14.13;;;5.10;99.90;;;;;;7383993;19;20115;-77
2024/01/14 22:33:51;;;;;;;36.28;15.80;;;5.00;99.90;;;;;;7406258;19;20016;-77
2024/01/14 22:36:20;;;;;;;35.08;15.32;;;5.00;99.90;;;;;;7384680;19;20007;-77
2024/01/14 22:38:49;;;;;;;32.90;15.02;;;4.90;99.90;;;;;;7382821;19;20160;-76
2024/01/14 22:41:21;;;;;;;35.58;15.20;;;4.90;99.90;;;;;;7383862;19;20019;-76
2024/01/14 22:43:50;;;;;;;37.15;14.90;;;4.90;99.90;;;;;;7383712;19;20017;-77
2024/01/14 22:46:22;;;;;;;47.13;16.95;;;4.90;99.90;;;;;;7384835;19;20019;-77
2024/01/14 22:48:53;;;;;;;38.78;16.13;;;4.90;99.90;;;;;;7386787;19;20326;-76
2024/01/14 22:51:22;;;;;;;;;;;4.80;99.90;;;;;;7409404;19;20006;-77
2024/01/14 22:53:52;;;;;;;35.42;14.18;;;4.80;99.90;;;;;;7382819;19;20207;-77
2024/01/14 22:56:21;;;;;;;41.35;16.15;;;4.80;99.90;;;;;;7383319;19;19999;-76
2024/01/14 22:58:55;;;;;;;49.75;15.98;;;4.70;99.90;;;;;;7383901;19;20019;-78
2024/01/14 23:01:24;;;;;;;33.05;14.68;;;4.70;99.90;;;;;;7384787;19;20010;-76
2024/01/14 23:03:57;;;;;;;52.25;16.25;;;4.70;99.90;;;;;;7383170;19;20006;-77
2024/01/14 23:06:26;;;;;;;46.35;15.75;;;4.70;99.90;;;;;;7402832;19;20006;-77
2024/01/14 23:08:56;;;;;;;42.20;17.35;;;4.70;99.90;;;;;;7381698;19;20011;-77
2024/01/14 23:11:25;;;;;;;39.05;17.40;;;4.60;99.90;;;;;;7381924;19;20317;-77
2024/01/14 23:13:54;;;;;;;43.97;17.15;;;4.60;99.90;;;;;;7381705;19;20010;-77
2024/01/14 23:16:24;;;;;;;41.15;16.75;;;4.60;99.90;;;;;;7383221;19;20007;-76
2024/01/14 23:19:01;;;;;;;39.00;15.25;;;4.50;99.90;;;;;;7384589;19;20013;-77
2024/01/14 23:21:34;;;;;;;31.77;13.93;;;4.50;99.90;;;;;;7403679;19;20011;-77
2024/01/14 23:24:04;;;;;;;32.35;14.40;;;4.50;99.90;;;;;;7382333;19;20002;-77
2024/01/14 23:26:39;;;;;;;36.20;14.02;;;4.50;99.90;;;;;;7384647;19;20011;-76
2024/01/14 23:29:21;;;;;;;30.30;13.38;;;4.40;99.90;;;;;;7383393;19;20002;-76
2024/01/14 23:32:28;;;;;;;29.52;12.55;;;4.40;99.90;;;;;;7383621;19;20007;-76
2024/01/14 23:35:00;;;;;;;28.50;12.70;;;4.40;99.90;;;;;;7381995;19;20019;-76
2024/01/14 23:37:28;;;;;;;;;;;4.40;99.90;;;;;;7385540;19;20011;-76
2024/01/14 23:39:57;;;;;;;33.60;13.10;;;4.40;99.90;;;;;;7384395;19;20152;-78
2024/01/14 23:42:26;;;;;;;31.80;12.70;;;4.40;99.90;;;;;;7408515;19;20062;-78
2024/01/14 23:44:55;;;;;;;38.95;14.18;;;4.40;99.90;;;;;;7388005;19;20014;-78
2024/01/14 23:47:24;;;;;;;34.85;12.90;;;4.40;99.90;;;;;;7387920;19;20030;-79
2024/01/14 23:49:52;;;;;;;28.63;13.18;;;4.30;99.90;;;;;;7388245;19;20015;-79
2024/01/14 23:52:25;;;;;;;31.02;12.35;;;4.30;99.90;;;;;;7386771;19;20003;-79
2024/01/14 23:54:54;;;;;;;25.13;12.45;;;4.30;99.90;;;;;;7404209;19;20006;-78
2024/01/14 23:57:22;;;;;;;29.55;12.63;;;4.20;99.90;;;;;;7406310;19;20028;-79
2024/01/14 23:59:51;;;;;;;48.47;13.93;;;4.20;99.90;;;;;;7384702;19;20027;-78
